createdAt,value
2016-06-04T00:00:27.120Z,0
2016-06-04T00:01:27.122Z,0
2016-06-04T00:02:27.125Z,0
2016-06-04T00:03:27.127Z,0
2016-06-04T00:04:27.131Z,0
2016-06-04T00:05:27.118Z,0
2016-06-04T00:06:27.105Z,0
2016-06-04T00:07:28.702Z,0
2016-06-04T00:08:28.829Z,0
2016-06-04T00:09:27.613Z,0
2016-06-04T00:10:28.350Z,0
2016-06-04T00:11:27.759Z,0
2016-06-04T00:12:27.104Z,0
2016-06-04T00:13:28.452Z,0
2016-06-04T00:14:27.688Z,0
2016-06-04T00:15:27.754Z,0
2016-06-04T00:16:27.615Z,0
2016-06-04T00:17:29.353Z,0
2016-06-04T00:18:29.324Z,0
2016-06-04T00:19:28.576Z,0
2016-06-04T00:21:28.067Z,0
2016-06-04T00:22:27.289Z,0
2016-06-04T00:23:27.978Z,0
2016-06-04T00:24:41.468Z,0
2016-06-04T00:25:27.093Z,0
2016-06-04T00:26:28.409Z,0
2016-06-04T00:27:27.098Z,0
2016-06-04T00:28:27.085Z,0
2016-06-04T00:29:27.073Z,0
2016-06-04T00:30:27.091Z,0
2016-06-04T00:31:27.078Z,0
2016-06-04T00:32:27.080Z,0
2016-06-04T00:33:27.083Z,0
2016-06-04T00:34:27.102Z,0
2016-06-04T00:35:27.089Z,0
2016-06-04T00:36:27.091Z,0
2016-06-04T00:37:26.922Z,0
2016-06-04T00:38:27.082Z,0
2016-06-04T00:39:27.100Z,0
2016-06-04T00:40:26.915Z,0
2016-06-04T00:41:27.246Z,0
2016-06-04T00:42:27.186Z,0
2016-06-04T00:43:27.110Z,0
2016-06-04T00:44:27.098Z,0
2016-06-04T00:45:27.053Z,0
2016-06-04T00:46:27.057Z,0
2016-06-04T00:47:27.059Z,0
2016-06-04T00:48:26.905Z,0
2016-06-04T00:49:27.064Z,0
2016-06-04T00:50:27.082Z,0
2016-06-04T00:51:27.085Z,0
2016-06-04T00:52:27.072Z,0
2016-06-04T00:53:27.076Z,0
2016-06-04T00:54:27.062Z,0
2016-06-04T00:55:27.064Z,0
2016-06-04T00:56:26.895Z,0
2016-06-04T00:57:27.039Z,0
2016-06-04T00:58:26.901Z,0
2016-06-04T00:59:27.087Z,0
2016-06-04T01:00:27.108Z,0
2016-06-04T01:01:27.143Z,0
2016-06-04T01:02:27.165Z,0
2016-06-04T01:03:27.185Z,0
2016-06-04T01:04:27.213Z,0
2016-06-04T01:05:27.244Z,0
2016-06-04T01:06:27.228Z,0
2016-06-04T01:07:27.242Z,0
2016-06-04T01:08:27.257Z,0
2016-06-04T01:09:27.111Z,0
2016-06-04T01:10:27.259Z,0
2016-06-04T01:11:27.407Z,0
2016-06-04T01:12:27.273Z,0
2016-06-04T01:13:27.280Z,0
2016-06-04T01:14:27.270Z,0
2016-06-04T01:15:27.274Z,0
2016-06-04T01:16:27.263Z,0
2016-06-04T01:17:27.282Z,0
2016-06-04T01:18:27.272Z,0
2016-06-04T01:19:27.275Z,0
2016-06-04T01:20:27.278Z,0
2016-06-04T01:21:27.282Z,0
2016-06-04T01:22:27.285Z,0
2016-06-04T01:23:27.272Z,0
2016-06-04T01:24:27.275Z,0
2016-06-04T01:25:27.262Z,0
2016-06-04T01:26:28.125Z,0
2016-06-04T01:27:29.018Z,0
2016-06-04T01:28:27.256Z,0
2016-06-04T01:29:29.181Z,0
2016-06-04T01:30:28.652Z,0
2016-06-04T01:31:27.280Z,0
2016-06-04T01:32:28.173Z,0
2016-06-04T01:33:27.254Z,0
2016-06-04T01:34:27.412Z,0
2016-06-04T01:35:29.120Z,0
2016-06-04T01:36:29.778Z,0
2016-06-04T01:37:28.328Z,0
2016-06-04T01:38:28.315Z,0
2016-06-04T01:39:27.301Z,0
2016-06-04T01:40:28.383Z,0
2016-06-04T01:41:28.182Z,0
2016-06-04T01:42:27.294Z,0
2016-06-04T01:43:27.344Z,0
2016-06-04T01:44:27.847Z,0
2016-06-04T01:45:27.271Z,0
2016-06-04T01:46:27.242Z,0
2016-06-04T01:47:27.245Z,0
2016-06-04T01:48:27.233Z,0
2016-06-04T01:49:27.078Z,0
2016-06-04T01:50:27.238Z,0
2016-06-04T01:51:27.224Z,0
2016-06-04T01:52:27.227Z,0
2016-06-04T01:53:27.214Z,0
2016-06-04T01:54:27.216Z,0
2016-06-04T01:55:27.219Z,0
2016-06-04T01:56:28.035Z,0
2016-06-04T01:57:27.225Z,0
2016-06-04T01:58:27.072Z,0
2016-06-04T01:59:27.199Z,0
2016-06-04T02:00:27.201Z,0
2016-06-04T02:01:27.221Z,0
2016-06-04T02:02:27.207Z,0
2016-06-04T02:03:27.225Z,0
2016-06-04T02:04:27.213Z,0
2016-06-04T02:05:27.215Z,0
2016-06-04T02:06:27.202Z,0
2016-06-04T02:07:27.221Z,0
2016-06-04T02:08:27.239Z,0
2016-06-04T02:09:27.210Z,0
2016-06-04T02:10:27.198Z,0
2016-06-04T02:11:29.123Z,0
2016-06-04T02:12:27.202Z,0
2016-06-04T02:13:27.190Z,0
2016-06-04T02:14:27.192Z,0
2016-06-04T02:15:27.180Z,0
2016-06-04T02:16:27.182Z,0
2016-06-04T02:17:27.185Z,0
2016-06-04T02:18:27.188Z,0
2016-06-04T02:19:27.191Z,0
2016-06-04T02:20:27.208Z,0
2016-06-04T02:21:27.180Z,0
2016-06-04T02:22:27.199Z,0
2016-06-04T02:23:27.030Z,0
2016-06-04T02:24:27.002Z,0
2016-06-04T02:25:27.019Z,0
2016-06-04T02:26:27.959Z,0
2016-06-04T02:27:27.180Z,0
2016-06-04T02:28:27.168Z,0
2016-06-04T02:29:27.170Z,0
2016-06-04T02:30:27.173Z,0
2016-06-04T02:31:27.176Z,0
2016-06-04T02:32:27.163Z,0
2016-06-04T02:33:27.150Z,5
2016-06-04T02:34:27.153Z,5
2016-06-04T02:35:27.156Z,5
2016-06-04T02:36:27.159Z,5
2016-06-04T02:37:27.145Z,5
2016-06-04T02:38:27.147Z,5
2016-06-04T02:39:27.151Z,5
2016-06-04T02:40:27.153Z,5
2016-06-04T02:41:27.656Z,10
2016-06-04T02:42:27.237Z,10
2016-06-04T02:43:27.145Z,10
2016-06-04T02:44:27.133Z,10
2016-06-04T02:45:28.761Z,10
2016-06-04T02:46:28.606Z,10
2016-06-04T02:47:28.000Z,15
2016-06-04T02:48:28.721Z,15
2016-06-04T02:49:28.958Z,15
2016-06-04T02:50:27.977Z,15
2016-06-04T02:51:27.152Z,15
2016-06-04T02:52:27.435Z,20
2016-06-04T02:53:27.188Z,20
2016-06-04T02:54:28.300Z,20
2016-06-04T02:55:27.131Z,20
2016-06-04T02:56:27.415Z,25
2016-06-04T02:57:42.949Z,25
2016-06-04T02:58:27.763Z,25
2016-06-04T02:59:27.860Z,30
2016-06-04T03:00:27.754Z,30
2016-06-04T03:01:27.210Z,30
2016-06-04T03:02:41.290Z,35
2016-06-04T03:03:26.949Z,35
2016-06-04T03:04:27.124Z,35
2016-06-04T03:05:27.143Z,40
2016-06-04T03:06:27.129Z,40
2016-06-04T03:07:27.117Z,45
2016-06-04T03:08:27.104Z,45
2016-06-04T03:09:26.950Z,45
2016-06-04T03:10:27.093Z,45
2016-06-04T03:11:26.798Z,45
2016-06-04T03:12:26.942Z,50
2016-06-04T03:13:27.086Z,50
2016-06-04T03:14:27.089Z,55
2016-06-04T03:15:27.091Z,55
2016-06-04T03:16:27.094Z,60
2016-06-04T03:17:27.097Z,60
2016-06-04T03:18:27.083Z,65
2016-06-04T03:19:27.087Z,65
2016-06-04T03:20:27.089Z,70
2016-06-04T03:21:27.075Z,70
2016-06-04T03:22:27.095Z,75
2016-06-04T03:23:27.128Z,75
2016-06-04T03:24:27.069Z,80
2016-06-04T03:25:27.071Z,80
2016-06-04T03:26:27.418Z,85
2016-06-04T03:27:27.077Z,95
2016-06-04T03:28:27.080Z,95
2016-06-04T03:29:27.082Z,95
2016-06-04T03:30:27.085Z,95
2016-06-04T03:31:27.150Z,95
2016-06-04T03:32:27.075Z,100
2016-06-04T03:33:27.076Z,100
2016-06-04T03:34:27.049Z,95
2016-06-04T03:35:26.895Z,95
2016-06-04T03:36:27.054Z,100
2016-06-04T03:37:27.056Z,105
2016-06-04T03:38:27.043Z,115
2016-06-04T03:39:27.046Z,120
2016-06-04T03:40:27.049Z,130
2016-06-04T03:41:27.317Z,130
2016-06-04T03:42:27.070Z,130
2016-06-04T03:43:27.072Z,135
2016-06-04T03:44:27.059Z,135
2016-06-04T03:45:27.109Z,140
2016-06-04T03:46:27.128Z,155
2016-06-04T03:47:27.053Z,165
2016-06-04T03:48:27.070Z,170
2016-06-04T03:49:27.042Z,175
2016-06-04T03:50:27.044Z,185
2016-06-04T03:51:27.047Z,190
2016-06-04T03:52:27.049Z,195
2016-06-04T03:53:27.053Z,200
2016-06-04T03:54:27.055Z,210
2016-06-04T03:55:27.058Z,220
2016-06-04T03:56:27.716Z,230
2016-06-04T03:57:27.047Z,240
2016-06-04T03:58:27.066Z,245
2016-06-04T03:59:27.069Z,255
2016-06-04T04:00:27.055Z,265
2016-06-04T04:01:26.902Z,270
2016-06-04T04:02:27.061Z,270
2016-06-04T04:03:28.627Z,265
2016-06-04T04:04:29.598Z,270
2016-06-04T04:05:28.023Z,285
2016-06-04T04:06:29.182Z,300
2016-06-04T04:07:28.778Z,315
2016-06-04T04:08:27.796Z,325
2016-06-04T04:09:27.376Z,335
2016-06-04T04:10:41.270Z,340
2016-06-04T04:11:27.242Z,340
2016-06-04T04:12:27.088Z,340
2016-06-04T04:13:29.715Z,335
2016-06-04T04:14:27.109Z,340
2016-06-04T04:15:28.440Z,365
2016-06-04T04:16:29.958Z,390
2016-06-04T04:17:27.617Z,395
2016-06-04T04:18:27.120Z,385
2016-06-04T04:19:27.716Z,395
2016-06-04T04:20:27.266Z,420
2016-06-04T04:21:27.691Z,435
2016-06-04T04:22:27.131Z,430
2016-06-04T04:23:27.133Z,435
2016-06-04T04:24:27.152Z,455
2016-06-04T04:25:26.998Z,475
2016-06-04T04:26:27.236Z,470
2016-06-04T04:27:27.160Z,475
2016-06-04T04:28:27.178Z,480
2016-06-04T04:29:27.181Z,490
2016-06-04T04:30:27.183Z,450
2016-06-04T04:31:27.201Z,400
2016-06-04T04:32:27.235Z,395
2016-06-04T04:33:27.223Z,395
2016-06-04T04:34:27.226Z,340
2016-06-04T04:35:27.243Z,295
2016-06-04T04:36:27.246Z,300
2016-06-04T04:37:27.249Z,310
2016-06-04T04:38:27.251Z,320
2016-06-04T04:39:27.271Z,325
2016-06-04T04:40:27.304Z,345
2016-06-04T04:41:27.995Z,360
2016-06-04T04:42:27.387Z,380
2016-06-04T04:43:27.296Z,405
2016-06-04T04:44:27.299Z,445
2016-06-04T04:45:27.318Z,495
2016-06-04T04:46:27.351Z,510
2016-06-04T04:47:27.354Z,520
2016-06-04T04:48:27.356Z,540
2016-06-04T04:49:27.359Z,535
2016-06-04T04:50:27.378Z,550
2016-06-04T04:51:27.381Z,555
2016-06-04T04:52:27.211Z,575
2016-06-04T04:53:27.386Z,555
2016-06-04T04:54:27.389Z,570
2016-06-04T04:55:27.423Z,575
2016-06-04T04:56:28.691Z,570
2016-06-04T04:57:27.349Z,645
2016-06-04T04:58:27.462Z,780
2016-06-04T04:59:27.433Z,835
2016-06-04T05:00:27.435Z,840
2016-06-04T05:01:27.454Z,840
2016-06-04T05:02:27.472Z,850
2016-06-04T05:03:27.475Z,860
2016-06-04T05:04:27.494Z,855
2016-06-04T05:05:27.496Z,870
2016-06-04T05:06:27.515Z,910
2016-06-04T05:07:27.518Z,945
2016-06-04T05:08:27.520Z,960
2016-06-04T05:09:27.538Z,965
2016-06-04T05:10:27.385Z,980
2016-06-04T05:11:27.450Z,1000
2016-06-04T05:12:27.421Z,1015
2016-06-04T05:13:27.612Z,1010
2016-06-04T05:14:27.599Z,1010
2016-06-04T05:15:27.617Z,1020
2016-06-04T05:16:27.619Z,1020
2016-06-04T05:17:27.623Z,1030
2016-06-04T05:18:27.640Z,1050
2016-06-04T05:19:27.659Z,1075
2016-06-04T05:20:27.678Z,1085
2016-06-04T05:21:27.681Z,1065
2016-06-04T05:22:28.636Z,1050
2016-06-04T05:23:29.857Z,1070
2016-06-04T05:24:27.736Z,1095
2016-06-04T05:25:29.331Z,1075
2016-06-04T05:26:28.647Z,1035
2016-06-04T05:27:28.368Z,995
2016-06-04T05:28:28.308Z,965
2016-06-04T05:29:28.264Z,965
2016-06-04T05:30:28.032Z,1010
2016-06-04T05:31:44.629Z,1035
2016-06-04T05:32:28.132Z,1020
2016-06-04T05:33:29.400Z,950
2016-06-04T05:34:43.340Z,905
2016-06-04T05:35:30.155Z,940
2016-06-04T05:36:29.017Z,1015
2016-06-04T05:37:29.317Z,1115
2016-06-04T05:38:28.210Z,1230
2016-06-04T05:39:42.151Z,1360
2016-06-04T05:40:27.966Z,1400
2016-06-04T05:41:27.827Z,1425
2016-06-04T05:42:28.127Z,1435
2016-06-04T05:43:27.989Z,1435
2016-06-04T05:44:28.007Z,1235
2016-06-04T05:45:28.057Z,905
2016-06-04T05:46:28.044Z,835
2016-06-04T05:47:28.109Z,940
2016-06-04T05:48:28.065Z,1050
2016-06-04T05:49:28.115Z,1085
2016-06-04T05:50:28.117Z,1185
2016-06-04T05:51:28.167Z,1305
2016-06-04T05:52:28.154Z,1305
2016-06-04T05:53:28.188Z,1305
2016-06-04T05:54:28.175Z,1345
2016-06-04T05:55:28.209Z,1330
2016-06-04T05:56:28.789Z,1360
2016-06-04T05:57:28.230Z,1420
2016-06-04T05:58:28.233Z,1450
2016-06-04T05:59:28.267Z,1450
2016-06-04T06:00:28.269Z,1425
2016-06-04T06:01:28.303Z,1475
2016-06-04T06:02:28.321Z,1565
2016-06-04T06:03:28.341Z,1600
2016-06-04T06:04:28.343Z,1600
2016-06-04T06:05:28.377Z,1580
2016-06-04T06:06:28.379Z,1580
2016-06-04T06:07:28.507Z,1550
2016-06-04T06:08:28.415Z,1545
2016-06-04T06:09:28.434Z,1515
2016-06-04T06:10:28.437Z,1505
2016-06-04T06:11:29.299Z,1520
2016-06-04T06:12:28.504Z,1570
2016-06-04T06:13:28.507Z,1570
2016-06-04T06:14:28.541Z,1560
2016-06-04T06:15:28.544Z,1570
2016-06-04T06:16:28.578Z,1545
2016-06-04T06:17:28.581Z,1535
2016-06-04T06:18:28.631Z,1525
2016-06-04T06:19:28.633Z,1545
2016-06-04T06:20:28.651Z,1575
2016-06-04T06:21:28.654Z,1610
2016-06-04T06:22:28.687Z,1655
2016-06-04T06:23:28.690Z,1675
2016-06-04T06:24:28.755Z,1680
2016-06-04T06:25:28.727Z,1675
2016-06-04T06:26:29.762Z,1640
2016-06-04T06:27:28.811Z,1595
2016-06-04T06:28:28.797Z,1570
2016-06-04T06:29:28.816Z,1575
2016-06-04T06:30:28.959Z,1575
2016-06-04T06:31:28.852Z,1600
2016-06-04T06:32:28.902Z,1585
2016-06-04T06:33:28.921Z,1570
2016-06-04T06:34:28.939Z,1585
2016-06-04T06:35:28.957Z,1600
2016-06-04T06:36:29.085Z,1620
2016-06-04T06:37:28.994Z,1620
2016-06-04T06:38:29.027Z,1620
2016-06-04T06:39:29.030Z,1610
2016-06-04T06:40:29.065Z,1620
2016-06-04T06:41:30.957Z,1685
2016-06-04T06:42:31.038Z,1755
2016-06-04T06:43:30.432Z,1780
2016-06-04T06:44:31.309Z,1765
2016-06-04T06:45:30.421Z,1775
2016-06-04T06:46:30.081Z,1775
2016-06-04T06:47:30.115Z,1755
2016-06-04T06:49:29.495Z,1865
2016-06-04T06:50:31.575Z,1890
2016-06-04T06:51:29.782Z,1960
2016-06-04T06:52:30.472Z,1925
2016-06-04T06:53:30.443Z,1905
2016-06-04T06:54:32.273Z,1865
2016-06-04T06:55:29.933Z,1875
2016-06-04T06:56:30.248Z,1880
2016-06-04T06:57:43.438Z,1945
2016-06-04T06:58:30.238Z,1990
2016-06-04T06:59:29.553Z,2010
2016-06-04T07:00:29.494Z,2015
2016-06-04T07:01:29.497Z,2045
2016-06-04T07:02:29.514Z,2015
2016-06-04T07:03:29.564Z,1940
2016-06-04T07:04:29.566Z,1875
2016-06-04T07:05:29.600Z,1895
2016-06-04T07:06:29.603Z,1885
2016-06-04T07:07:29.653Z,1945
2016-06-04T07:08:29.640Z,1985
2016-06-04T07:09:29.532Z,1990
2016-06-04T07:10:29.691Z,2040
2016-06-04T07:11:30.960Z,2080
2016-06-04T07:12:29.728Z,2110
2016-06-04T07:13:29.778Z,2105
2016-06-04T07:14:29.782Z,2080
2016-06-04T07:15:29.799Z,2075
2016-06-04T07:16:29.848Z,2080
2016-06-04T07:17:29.851Z,2065
2016-06-04T07:18:29.885Z,2065
2016-06-04T07:19:29.888Z,2025
2016-06-04T07:20:29.906Z,1955
2016-06-04T07:21:29.956Z,1945
2016-06-04T07:22:29.959Z,1990
2016-06-04T07:23:30.009Z,2045
2016-06-04T07:24:30.011Z,2115
2016-06-04T07:25:30.028Z,2180
2016-06-04T07:26:30.157Z,2240
2016-06-04T07:27:29.925Z,2270
2016-06-04T07:28:30.131Z,2210
2016-06-04T07:29:30.134Z,2090
2016-06-04T07:30:30.152Z,1995
2016-06-04T07:31:30.170Z,1970
2016-06-04T07:32:30.188Z,1960
2016-06-04T07:33:30.222Z,1955
2016-06-04T07:34:30.256Z,1930
2016-06-04T07:35:30.259Z,1840
2016-06-04T07:36:30.308Z,1780
2016-06-04T07:37:30.327Z,1795
2016-06-04T07:38:30.361Z,1865
2016-06-04T07:39:30.349Z,1880
2016-06-04T07:40:30.397Z,1890
2016-06-04T07:41:32.369Z,1990
2016-06-04T07:42:30.513Z,2075
2016-06-04T07:43:30.453Z,2125
2016-06-04T07:44:30.487Z,2180
2016-06-04T07:45:30.489Z,2210
2016-06-04T07:46:30.538Z,2245
2016-06-04T07:47:30.541Z,2275
2016-06-04T07:48:30.560Z,2335
2016-06-04T07:49:30.593Z,2360
2016-06-04T07:50:30.596Z,2310
2016-06-04T07:51:30.771Z,2180
2016-06-04T07:52:30.336Z,2070
2016-06-04T07:53:30.682Z,2025
2016-06-04T07:54:30.700Z,2050
2016-06-04T07:55:30.720Z,2050
2016-06-04T07:56:30.862Z,2035
2016-06-04T07:57:30.787Z,2070
2016-06-04T07:58:30.790Z,2090
2016-06-04T07:59:32.620Z,2110
2016-06-04T08:00:32.451Z,2135
2016-06-04T08:01:31.064Z,2150
2016-06-04T08:02:32.331Z,2160
2016-06-04T08:03:46.131Z,2130
2016-06-04T08:04:31.775Z,2120
2016-06-04T08:05:32.074Z,2095
2016-06-04T08:06:31.592Z,2075
2016-06-04T08:07:32.267Z,2070
2016-06-04T08:08:31.505Z,2015
2016-06-04T08:09:33.850Z,1825
2016-06-04T08:10:31.057Z,1815
2016-06-04T08:11:30.918Z,1845
2016-06-04T08:12:33.577Z,1935
2016-06-04T08:13:34.283Z,2020
2016-06-04T08:14:31.785Z,2095
2016-06-04T08:15:31.164Z,2155
2016-06-04T08:16:31.416Z,2145
2016-06-04T08:17:32.716Z,2070
2016-06-04T08:18:31.249Z,1995
2016-06-04T08:19:31.252Z,1965
2016-06-04T08:20:31.427Z,1970
2016-06-04T08:21:31.304Z,1960
2016-06-04T08:22:31.323Z,1990
2016-06-04T08:23:31.341Z,2035
2016-06-04T08:24:31.360Z,2070
2016-06-04T08:25:31.237Z,2075
2016-06-04T08:26:31.256Z,2065
2016-06-04T08:27:31.118Z,2060
2016-06-04T08:28:31.448Z,2060
2016-06-04T08:29:31.326Z,2070
2016-06-04T08:30:31.344Z,2080
2016-06-04T08:31:31.519Z,2095
2016-06-04T08:32:31.537Z,2095
2016-06-04T08:33:31.586Z,2035
2016-06-04T08:34:31.590Z,1900
2016-06-04T08:35:31.608Z,1825
2016-06-04T08:36:43.954Z,1730
2016-06-04T08:37:31.691Z,1735
2016-06-04T08:38:31.975Z,1740
2016-06-04T08:39:31.680Z,1805
2016-06-04T08:40:31.699Z,1855
2016-06-04T08:41:31.593Z,1900
2016-06-04T08:42:33.907Z,1960
2016-06-04T08:43:31.770Z,1960
2016-06-04T08:44:31.789Z,1995
2016-06-04T08:45:31.807Z,2065
2016-06-04T08:46:31.841Z,2130
2016-06-04T08:47:31.859Z,2120
2016-06-04T08:48:31.721Z,2100
2016-06-04T08:49:31.755Z,2110
2016-06-04T08:50:31.914Z,2100
2016-06-04T08:51:31.932Z,2070
2016-06-04T08:52:31.951Z,2095
2016-06-04T08:53:31.968Z,1740
2016-06-04T08:54:32.003Z,980
2016-06-04T08:55:32.021Z,615
2016-06-04T08:56:32.039Z,560
2016-06-04T08:57:32.058Z,520
2016-06-04T08:58:31.951Z,510
2016-06-04T08:59:32.094Z,515
2016-06-04T09:00:32.128Z,535
2016-06-04T09:01:32.131Z,550
2016-06-04T09:02:32.150Z,550
2016-06-04T09:03:32.167Z,525
2016-06-04T09:04:32.186Z,515
2016-06-04T09:05:32.220Z,530
2016-06-04T09:06:32.223Z,555
2016-06-04T09:07:32.241Z,575
2016-06-04T09:08:32.244Z,550
2016-06-04T09:09:32.247Z,580
2016-06-04T09:10:32.264Z,625
2016-06-04T09:11:32.283Z,645
2016-06-04T09:12:32.177Z,660
2016-06-04T09:13:32.163Z,605
2016-06-04T09:14:32.322Z,480
2016-06-04T09:15:32.199Z,440
2016-06-04T09:16:32.438Z,465
2016-06-04T09:17:32.455Z,495
2016-06-04T09:18:32.645Z,505
2016-06-04T09:19:33.618Z,480
2016-06-04T09:20:36.104Z,440
2016-06-04T09:21:33.466Z,415
2016-06-04T09:22:36.235Z,440
2016-06-04T09:23:32.987Z,480
2016-06-04T09:24:32.459Z,470
2016-06-04T09:25:36.165Z,465
2016-06-04T09:26:32.932Z,480
2016-06-04T09:27:33.232Z,460
2016-06-04T09:28:47.984Z,470
2016-06-04T09:29:33.770Z,470
2016-06-04T09:30:32.365Z,470
2016-06-04T09:31:34.383Z,475
2016-06-04T09:32:32.792Z,475
2016-06-04T09:33:33.452Z,490
2016-06-04T09:34:32.892Z,500
2016-06-04T09:35:33.067Z,535
2016-06-04T09:36:32.975Z,550
2016-06-04T09:37:32.603Z,570
2016-06-04T09:38:32.590Z,580
2016-06-04T09:39:32.811Z,610
2016-06-04T09:40:32.611Z,630
2016-06-04T09:41:32.630Z,655
2016-06-04T09:42:32.664Z,665
2016-06-04T09:43:32.385Z,615
2016-06-04T09:44:32.653Z,580
2016-06-04T09:45:32.655Z,550
2016-06-04T09:46:32.690Z,520
2016-06-04T09:47:32.677Z,510
2016-06-04T09:48:32.695Z,500
2016-06-04T09:49:32.713Z,485
2016-06-04T09:50:32.716Z,455
2016-06-04T09:51:32.735Z,420
2016-06-04T09:52:32.768Z,455
2016-06-04T09:53:32.739Z,495
2016-06-04T09:54:32.743Z,520
2016-06-04T09:55:32.776Z,540
2016-06-04T09:56:32.763Z,545
2016-06-04T09:57:32.656Z,550
2016-06-04T09:58:32.769Z,570
2016-06-04T09:59:32.803Z,560
2016-06-04T10:00:32.806Z,545
2016-06-04T10:01:32.823Z,515
2016-06-04T10:02:32.826Z,500
2016-06-04T10:03:32.829Z,510
2016-06-04T10:04:32.692Z,530
2016-06-04T10:05:32.867Z,565
2016-06-04T10:06:32.914Z,575
2016-06-04T10:07:32.944Z,560
2016-06-04T10:08:32.990Z,530
2016-06-04T10:09:33.036Z,525
2016-06-04T10:10:33.039Z,515
2016-06-04T10:11:33.568Z,510
2016-06-04T10:12:33.081Z,515
2016-06-04T10:13:33.703Z,505
2016-06-04T10:14:32.996Z,470
2016-06-04T10:15:33.130Z,430
2016-06-04T10:16:32.996Z,425
2016-06-04T10:17:33.157Z,445
2016-06-04T10:18:33.179Z,475
2016-06-04T10:19:33.123Z,500
2016-06-04T10:20:33.206Z,520
2016-06-04T10:21:43.773Z,480
2016-06-04T10:22:33.230Z,455
2016-06-04T10:23:33.234Z,475
2016-06-04T10:24:33.083Z,465
2016-06-04T10:25:33.258Z,450
2016-06-04T10:26:33.261Z,440
2016-06-04T10:27:33.280Z,415
2016-06-04T10:28:33.298Z,390
2016-06-04T10:29:34.067Z,375
2016-06-04T10:30:33.148Z,360
2016-06-04T10:31:33.307Z,365
2016-06-04T10:32:34.029Z,380
2016-06-04T10:33:33.327Z,375
2016-06-04T10:34:33.330Z,390
2016-06-04T10:35:33.349Z,395
2016-06-04T10:36:33.351Z,415
2016-06-04T10:37:36.510Z,405
2016-06-04T10:38:34.091Z,385
2016-06-04T10:39:33.219Z,380
2016-06-04T10:40:36.175Z,375
2016-06-04T10:41:34.709Z,390
2016-06-04T10:42:35.118Z,400
2016-06-04T10:43:34.168Z,395
2016-06-04T10:44:34.279Z,380
2016-06-04T10:45:33.267Z,360
2016-06-04T10:46:35.972Z,365
2016-06-04T10:47:33.491Z,355
2016-06-04T10:48:33.697Z,370
2016-06-04T10:49:33.652Z,390
2016-06-04T10:53:48.225Z,430
2016-06-04T10:54:33.759Z,420
2016-06-04T10:55:35.496Z,410
2016-06-04T10:56:33.358Z,440
2016-06-04T10:57:34.017Z,460
2016-06-04T10:58:33.910Z,460
2016-06-04T10:59:33.555Z,445
2016-06-04T11:00:34.979Z,450
2016-06-04T11:01:33.560Z,450
2016-06-04T11:02:33.578Z,440
2016-06-04T11:03:33.581Z,445
2016-06-04T11:04:33.443Z,450
2016-06-04T11:05:33.586Z,460
2016-06-04T11:06:33.604Z,465
2016-06-04T11:07:33.638Z,480
2016-06-04T11:08:33.626Z,505
2016-06-04T11:09:33.315Z,515
2016-06-04T11:10:33.631Z,505
2016-06-04T11:11:33.648Z,495
2016-06-04T11:12:33.652Z,505
2016-06-04T11:13:34.685Z,520
2016-06-04T11:14:34.532Z,550
2016-06-04T11:15:35.066Z,560
2016-06-04T11:16:33.694Z,575
2016-06-04T11:17:33.712Z,585
2016-06-04T11:18:33.715Z,600
2016-06-04T11:19:33.577Z,610
2016-06-04T11:20:33.720Z,595
2016-06-04T11:21:33.739Z,555
2016-06-04T11:22:33.600Z,520
2016-06-04T11:23:33.603Z,500
2016-06-04T11:24:33.606Z,520
2016-06-04T11:25:33.765Z,575
2016-06-04T11:26:33.799Z,605
2016-06-04T11:27:35.442Z,610
2016-06-04T11:28:33.820Z,605
2016-06-04T11:29:33.839Z,575
2016-06-04T11:30:33.825Z,540
2016-06-04T11:31:33.672Z,520
2016-06-04T11:32:33.846Z,515
2016-06-04T11:33:33.849Z,510
2016-06-04T11:34:33.883Z,505
2016-06-04T11:35:33.714Z,515
2016-06-04T11:36:33.888Z,510
2016-06-04T11:37:33.890Z,515
2016-06-04T11:38:33.894Z,505
2016-06-04T11:39:33.943Z,500
2016-06-04T11:40:33.758Z,485
2016-06-04T11:41:33.901Z,490
2016-06-04T11:42:33.935Z,500
2016-06-04T11:43:33.953Z,510
2016-06-04T11:44:33.957Z,505
2016-06-04T11:45:33.834Z,500
2016-06-04T11:46:33.977Z,500
2016-06-04T11:47:33.840Z,505
2016-06-04T11:48:33.999Z,510
2016-06-04T11:49:34.017Z,510
2016-06-04T11:50:34.020Z,515
2016-06-04T11:51:34.038Z,525
2016-06-04T11:52:34.040Z,540
2016-06-04T11:53:34.059Z,545
2016-06-04T11:54:34.062Z,570
2016-06-04T11:55:34.580Z,585
2016-06-04T11:56:36.410Z,605
2016-06-04T11:57:35.023Z,605
2016-06-04T11:58:35.103Z,620
2016-06-04T11:59:36.106Z,610
2016-06-04T12:00:48.781Z,595
2016-06-04T12:01:35.814Z,590
2016-06-04T12:02:35.146Z,555
2016-06-04T12:03:34.304Z,550
2016-06-04T12:04:35.183Z,540
2016-06-04T12:05:35.279Z,530
2016-06-04T12:06:35.000Z,540
2016-06-04T12:07:35.612Z,545
2016-06-04T12:08:34.600Z,545
2016-06-04T12:09:48.665Z,535
2016-06-04T12:10:34.730Z,515
2016-06-04T12:11:35.638Z,500
2016-06-04T12:13:34.551Z,460
2016-06-04T12:14:34.381Z,450
2016-06-04T12:15:34.274Z,445
2016-06-04T12:16:34.387Z,425
2016-06-04T12:17:34.295Z,400
2016-06-04T12:18:34.298Z,375
2016-06-04T12:19:34.317Z,360
2016-06-04T12:20:34.320Z,360
2016-06-04T12:21:34.337Z,370
2016-06-04T12:22:34.340Z,370
2016-06-04T12:23:34.358Z,385
2016-06-04T12:24:34.376Z,410
2016-06-04T12:25:34.395Z,420
2016-06-04T12:26:34.397Z,420
2016-06-04T12:27:34.401Z,435
2016-06-04T12:28:34.403Z,435
2016-06-04T12:29:34.422Z,425
2016-06-04T12:30:34.424Z,415
2016-06-04T12:31:34.442Z,405
2016-06-04T12:32:34.445Z,395
2016-06-04T12:33:34.463Z,395
2016-06-04T12:34:34.466Z,390
2016-06-04T12:35:34.469Z,385
2016-06-04T12:36:34.488Z,390
2016-06-04T12:37:34.490Z,400
2016-06-04T12:38:34.555Z,405
2016-06-04T12:39:34.511Z,410
2016-06-04T12:40:34.529Z,420
2016-06-04T12:41:34.532Z,440
2016-06-04T12:42:35.285Z,440
2016-06-04T12:43:34.396Z,435
2016-06-04T12:44:34.555Z,415
2016-06-04T12:45:34.573Z,400
2016-06-04T12:46:34.593Z,390
2016-06-04T12:47:34.595Z,390
2016-06-04T12:48:34.441Z,380
2016-06-04T12:49:34.600Z,380
2016-06-04T12:50:34.618Z,385
2016-06-04T12:51:34.637Z,395
2016-06-04T12:52:34.639Z,395
2016-06-04T12:53:34.642Z,385
2016-06-04T12:54:34.645Z,380
2016-06-04T12:55:34.664Z,360
2016-06-04T12:56:35.259Z,350
2016-06-04T12:57:35.231Z,340
2016-06-04T12:58:34.687Z,330
2016-06-04T12:59:34.689Z,320
2016-06-04T13:00:34.708Z,315
2016-06-04T13:01:34.726Z,310
2016-06-04T13:02:34.573Z,290
2016-06-04T13:03:34.731Z,290
2016-06-04T13:04:34.609Z,285
2016-06-04T13:05:34.753Z,290
2016-06-04T13:06:34.771Z,285
2016-06-04T13:07:34.789Z,280
2016-06-04T13:08:34.791Z,270
2016-06-04T13:09:34.794Z,265
2016-06-04T13:10:34.797Z,260
2016-06-04T13:11:34.816Z,250
2016-06-04T13:12:34.819Z,250
2016-06-04T13:13:35.102Z,255
2016-06-04T13:14:37.198Z,260
2016-06-04T13:15:34.843Z,265
2016-06-04T13:16:34.860Z,265
2016-06-04T13:17:51.363Z,275
2016-06-04T13:18:35.085Z,280
2016-06-04T13:19:35.368Z,290
2016-06-04T13:20:35.683Z,290
2016-06-04T13:21:35.749Z,300
2016-06-04T13:22:35.314Z,300
2016-06-04T13:23:38.254Z,305
2016-06-04T13:24:36.303Z,310
2016-06-04T13:25:34.948Z,310
2016-06-04T13:26:35.028Z,315
2016-06-04T13:27:37.843Z,320
2016-06-04T13:28:35.158Z,325
2016-06-04T13:29:36.348Z,335
2016-06-04T13:30:35.429Z,345
2016-06-04T13:31:35.120Z,360
2016-06-04T13:32:35.388Z,380
2016-06-04T13:33:35.000Z,380
2016-06-04T13:34:35.003Z,380
2016-06-04T13:35:35.021Z,385
2016-06-04T13:36:35.024Z,390
2016-06-04T13:37:35.073Z,385
2016-06-04T13:38:35.045Z,385
2016-06-04T13:39:34.750Z,380
2016-06-04T13:40:35.065Z,365
2016-06-04T13:41:35.069Z,360
2016-06-04T13:42:35.071Z,360
2016-06-04T13:43:36.808Z,355
2016-06-04T13:44:34.952Z,350
2016-06-04T13:45:35.094Z,345
2016-06-04T13:46:35.113Z,335
2016-06-04T13:47:35.116Z,325
2016-06-04T13:48:35.118Z,315
2016-06-04T13:49:35.152Z,305
2016-06-04T13:50:35.140Z,295
2016-06-04T13:51:35.157Z,295
2016-06-04T13:52:35.160Z,285
2016-06-04T13:53:35.179Z,280
2016-06-04T13:54:35.025Z,275
2016-06-04T13:55:35.184Z,270
2016-06-04T13:56:35.203Z,265
2016-06-04T13:57:35.206Z,265